sensor_id;sensor_type;location;lat;lon;timestamp;pressure;altitude;pressure_sealevel;temperature;humidity
77587;BME280;66744;49.716;17.158;2023-05-29T00:02:18;99226.91;;;12.40;62.32
77587;BME280;66744;49.716;17.158;2023-05-29T00:05:19;99219.84;;;12.39;63.29
77587;BME280;66744;49.716;17.158;2023-05-29T00:08:21;99206.97;;;12.36;63.28
77587;BME280;66744;49.716;17.158;2023-05-29T00:11:22;99215.69;;;12.34;61.83
77587;BME280;66744;49.716;17.158;2023-05-29T00:14:24;99209.63;;;12.26;62.47
77587;BME280;66744;49.716;17.158;2023-05-29T00:17:26;99212.94;;;12.21;63.02
77587;BME280;66744;49.716;17.158;2023-05-29T00:20:27;99215.47;;;12.16;63.40
77587;BME280;66744;49.716;17.158;2023-05-29T00:23:29;99219.22;;;12.09;63.36
77587;BME280;66744;49.716;17.158;2023-05-29T00:26:31;99211.59;;;12.01;63.67
77587;BME280;66744;49.716;17.158;2023-05-29T00:29:33;99218.44;;;11.96;64.30
77587;BME280;66744;49.716;17.158;2023-05-29T00:32:36;99207.44;;;11.96;63.55
77587;BME280;66744;49.716;17.158;2023-05-29T00:35:38;99215.91;;;12.02;62.95
77587;BME280;66744;49.716;17.158;2023-05-29T00:38:39;99212.28;;;12.05;64.29
77587;BME280;66744;49.716;17.158;2023-05-29T00:41:40;99205.53;;;12.06;64.50
77587;BME280;66744;49.716;17.158;2023-05-29T00:44:42;99206.00;;;11.92;63.95
77587;BME280;66744;49.716;17.158;2023-05-29T00:47:43;99213.69;;;11.84;63.26
77587;BME280;66744;49.716;17.158;2023-05-29T00:50:46;99213.69;;;11.84;64.60
77587;BME280;66744;49.716;17.158;2023-05-29T00:53:48;99209.94;;;11.78;64.37
77587;BME280;66744;49.716;17.158;2023-05-29T00:56:49;99207.13;;;11.65;63.93
77587;BME280;66744;49.716;17.158;2023-05-29T00:59:51;99200.44;;;11.66;63.93
77587;BME280;66744;49.716;17.158;2023-05-29T01:02:52;99208.25;;;11.68;63.70
77587;BME280;66744;49.716;17.158;2023-05-29T01:05:54;99203.50;;;11.68;64.11
77587;BME280;66744;49.716;17.158;2023-05-29T01:08:55;99208.97;;;11.56;64.23
77587;BME280;66744;49.716;17.158;2023-05-29T01:18:41;99211.88;;;11.24;64.57
77587;BME280;66744;49.716;17.158;2023-05-29T01:22:12;99211.78;;;11.27;66.40
77587;BME280;66744;49.716;17.158;2023-05-29T01:29:00;99222.69;;;11.31;66.08
77587;BME280;66744;49.716;17.158;2023-05-29T01:32:03;99214.19;;;11.25;65.47
77587;BME280;66744;49.716;17.158;2023-05-29T01:35:06;99217.53;;;11.16;65.50
77587;BME280;66744;49.716;17.158;2023-05-29T01:38:07;99209.41;;;11.13;66.58
77587;BME280;66744;49.716;17.158;2023-05-29T01:41:09;99215.00;;;11.09;65.64
77587;BME280;66744;49.716;17.158;2023-05-29T01:44:11;99214.00;;;11.03;66.24
77587;BME280;66744;49.716;17.158;2023-05-29T01:47:15;99212.97;;;10.97;67.06
77587;BME280;66744;49.716;17.158;2023-05-29T01:50:18;99218.47;;;10.97;66.68
77587;BME280;66744;49.716;17.158;2023-05-29T01:53:19;99214.47;;;10.86;66.50
77587;BME280;66744;49.716;17.158;2023-05-29T01:56:21;99210.06;;;10.88;67.29
77587;BME280;66744;49.716;17.158;2023-05-29T01:59:24;99213.22;;;10.87;67.12
77587;BME280;66744;49.716;17.158;2023-05-29T02:02:26;99202.69;;;10.85;67.78
77587;BME280;66744;49.716;17.158;2023-05-29T02:05:27;99200.97;;;10.91;66.30
77587;BME280;66744;49.716;17.158;2023-05-29T02:08:28;99203.00;;;10.87;66.88
77587;BME280;66744;49.716;17.158;2023-05-29T02:11:29;99203.47;;;10.86;67.68
77587;BME280;66744;49.716;17.158;2023-05-29T02:14:30;99196.84;;;10.83;66.75
77587;BME280;66744;49.716;17.158;2023-05-29T02:17:33;99194.19;;;10.80;67.47
77587;BME280;66744;49.716;17.158;2023-05-29T02:20:35;99196.00;;;10.70;67.92
77587;BME280;66744;49.716;17.158;2023-05-29T02:23:36;99199.44;;;10.74;67.53
77587;BME280;66744;49.716;17.158;2023-05-29T02:26:38;99199.88;;;10.73;67.40
77587;BME280;66744;49.716;17.158;2023-05-29T02:29:39;99188.28;;;10.65;66.40
77587;BME280;66744;49.716;17.158;2023-05-29T02:32:40;99181.53;;;10.53;67.68
77587;BME280;66744;49.716;17.158;2023-05-29T02:35:41;99181.28;;;10.48;68.71
77587;BME280;66744;49.716;17.158;2023-05-29T02:38:43;99190.38;;;10.45;67.42
77587;BME280;66744;49.716;17.158;2023-05-29T02:41:44;99193.53;;;10.43;68.37
77587;BME280;66744;49.716;17.158;2023-05-29T02:44:45;99184.19;;;10.41;68.97
77587;BME280;66744;49.716;17.158;2023-05-29T02:47:47;99189.75;;;10.37;67.72
77587;BME280;66744;49.716;17.158;2023-05-29T02:50:48;99182.66;;;10.24;68.81
77587;BME280;66744;49.716;17.158;2023-05-29T02:53:49;99176.56;;;10.32;68.55
77587;BME280;66744;49.716;17.158;2023-05-29T02:56:51;99185.13;;;10.34;67.80
77587;BME280;66744;49.716;17.158;2023-05-29T02:59:52;99177.34;;;10.33;68.42
77587;BME280;66744;49.716;17.158;2023-05-29T03:02:54;99175.94;;;10.25;68.24
77587;BME280;66744;49.716;17.158;2023-05-29T03:05:56;99176.69;;;10.09;68.39
77587;BME280;66744;49.716;17.158;2023-05-29T03:08:57;99176.66;;;9.93;68.26
77587;BME280;66744;49.716;17.158;2023-05-29T03:12:00;99177.84;;;9.92;69.77
77587;BME280;66744;49.716;17.158;2023-05-29T03:15:05;99186.56;;;10.07;69.86
77587;BME280;66744;49.716;17.158;2023-05-29T03:18:06;99188.53;;;10.06;69.54
77587;BME280;66744;49.716;17.158;2023-05-29T03:21:09;99181.69;;;10.14;69.09
77587;BME280;66744;49.716;17.158;2023-05-29T03:24:10;99180.00;;;10.20;69.37
77587;BME280;66744;49.716;17.158;2023-05-29T03:27:13;99197.72;;;10.16;69.03
77587;BME280;66744;49.716;17.158;2023-05-29T03:30:16;99194.06;;;10.22;68.70
77587;BME280;66744;49.716;17.158;2023-05-29T03:33:17;99201.03;;;10.27;68.93
77587;BME280;66744;49.716;17.158;2023-05-29T03:36:41;99192.84;;;10.23;68.87
77587;BME280;66744;49.716;17.158;2023-05-29T03:39:43;99196.78;;;10.22;69.11
77587;BME280;66744;49.716;17.158;2023-05-29T03:42:45;99201.44;;;10.25;69.06
77587;BME280;66744;49.716;17.158;2023-05-29T03:45:48;99203.84;;;10.23;69.36
77587;BME280;66744;49.716;17.158;2023-05-29T03:48:49;99197.16;;;10.24;69.00
77587;BME280;66744;49.716;17.158;2023-05-29T03:52:01;99193.97;;;10.26;69.14
77587;BME280;66744;49.716;17.158;2023-05-29T03:55:02;99198.00;;;10.37;69.50
77587;BME280;66744;49.716;17.158;2023-05-29T03:58:04;99197.22;;;10.37;68.96
77587;BME280;66744;49.716;17.158;2023-05-29T04:01:05;99209.25;;;10.43;69.86
77587;BME280;66744;49.716;17.158;2023-05-29T04:04:07;99200.06;;;10.49;70.28
77587;BME280;66744;49.716;17.158;2023-05-29T04:07:08;99195.19;;;10.57;69.58
77587;BME280;66744;49.716;17.158;2023-05-29T04:10:10;99196.47;;;10.52;69.75
77587;BME280;66744;49.716;17.158;2023-05-29T04:13:11;99199.53;;;10.54;70.12
77587;BME280;66744;49.716;17.158;2023-05-29T04:16:14;99207.44;;;10.52;69.63
77587;BME280;66744;49.716;17.158;2023-05-29T04:19:15;99210.53;;;10.54;70.48
77587;BME280;66744;49.716;17.158;2023-05-29T04:22:17;99202.66;;;10.56;69.47
77587;BME280;66744;49.716;17.158;2023-05-29T04:25:18;99209.84;;;10.67;70.95
77587;BME280;66744;49.716;17.158;2023-05-29T04:28:19;99208.09;;;10.73;70.75
77587;BME280;66744;49.716;17.158;2023-05-29T04:31:25;99205.59;;;10.78;71.16
77587;BME280;66744;49.716;17.158;2023-05-29T04:34:27;99215.16;;;10.74;71.27
77587;BME280;66744;49.716;17.158;2023-05-29T04:37:29;99215.94;;;10.74;71.42
77587;BME280;66744;49.716;17.158;2023-05-29T04:40:32;99221.38;;;10.90;71.35
77587;BME280;66744;49.716;17.158;2023-05-29T04:43:35;99212.28;;;10.93;71.92
77587;BME280;66744;49.716;17.158;2023-05-29T04:46:40;99223.78;;;11.04;72.10
77587;BME280;66744;49.716;17.158;2023-05-29T04:49:41;99220.19;;;11.07;70.55
77587;BME280;66744;49.716;17.158;2023-05-29T04:52:43;99218.00;;;11.15;69.80
77587;BME280;66744;49.716;17.158;2023-05-29T04:55:45;99226.31;;;11.28;70.74
77587;BME280;66744;49.716;17.158;2023-05-29T04:58:46;99226.31;;;11.40;71.21
77587;BME280;66744;49.716;17.158;2023-05-29T05:01:48;99215.13;;;11.47;70.94
77587;BME280;66744;49.716;17.158;2023-05-29T05:04:50;99216.50;;;11.68;71.94
77587;BME280;66744;49.716;17.158;2023-05-29T05:07:51;99212.59;;;11.82;70.36
77587;BME280;66744;49.716;17.158;2023-05-29T05:10:52;99222.31;;;11.99;68.96
77587;BME280;66744;49.716;17.158;2023-05-29T05:13:55;99218.88;;;12.07;69.78
77587;BME280;66744;49.716;17.158;2023-05-29T05:16:56;99220.78;;;12.23;70.10
77587;BME280;66744;49.716;17.158;2023-05-29T05:19:57;99212.47;;;12.36;69.26
77587;BME280;66744;49.716;17.158;2023-05-29T05:22:59;99212.34;;;12.52;69.87
77587;BME280;66744;49.716;17.158;2023-05-29T05:26:02;99215.31;;;12.70;69.61
77587;BME280;66744;49.716;17.158;2023-05-29T05:29:04;99215.47;;;12.88;68.08
77587;BME280;66744;49.716;17.158;2023-05-29T05:32:07;99220.19;;;13.00;67.18
77587;BME280;66744;49.716;17.158;2023-05-29T05:35:09;99229.66;;;13.12;67.65
77587;BME280;66744;49.716;17.158;2023-05-29T05:38:12;99235.06;;;13.15;66.86
77587;BME280;66744;49.716;17.158;2023-05-29T05:41:14;99238.53;;;13.28;66.50
77587;BME280;66744;49.716;17.158;2023-05-29T05:44:16;99238.00;;;13.43;65.47
77587;BME280;66744;49.716;17.158;2023-05-29T05:47:24;99226.59;;;13.53;66.46
77587;BME280;66744;49.716;17.158;2023-05-29T05:50:25;99236.69;;;13.69;64.45
77587;BME280;66744;49.716;17.158;2023-05-29T05:53:27;99239.03;;;13.79;64.92
77587;BME280;66744;49.716;17.158;2023-05-29T05:56:28;99238.84;;;14.05;65.41
77587;BME280;66744;49.716;17.158;2023-05-29T05:59:32;99243.88;;;14.28;64.58
77587;BME280;66744;49.716;17.158;2023-05-29T06:02:33;99250.13;;;14.50;64.79
77587;BME280;66744;49.716;17.158;2023-05-29T06:05:38;99244.38;;;14.75;63.45
77587;BME280;66744;49.716;17.158;2023-05-29T06:08:42;99260.81;;;14.88;62.84
77587;BME280;66744;49.716;17.158;2023-05-29T06:11:45;99250.84;;;14.99;63.76
77587;BME280;66744;49.716;17.158;2023-05-29T06:14:46;99253.34;;;15.16;62.16
77587;BME280;66744;49.716;17.158;2023-05-29T06:17:48;99255.97;;;15.37;62.19
77587;BME280;66744;49.716;17.158;2023-05-29T06:20:53;99258.28;;;15.57;60.88
77587;BME280;66744;49.716;17.158;2023-05-29T06:23:54;99249.19;;;15.66;61.02
77587;BME280;66744;49.716;17.158;2023-05-29T06:26:55;99253.63;;;15.81;60.97
77587;BME280;66744;49.716;17.158;2023-05-29T06:30:00;99253.13;;;15.92;61.71
77587;BME280;66744;49.716;17.158;2023-05-29T06:33:07;99263.41;;;16.09;59.12
77587;BME280;66744;49.716;17.158;2023-05-29T06:36:10;99270.59;;;16.25;58.92
77587;BME280;66744;49.716;17.158;2023-05-29T06:39:13;99273.00;;;16.41;60.02
77587;BME280;66744;49.716;17.158;2023-05-29T06:42:19;99263.69;;;16.62;59.84
77587;BME280;66744;49.716;17.158;2023-05-29T06:45:23;99269.78;;;16.76;58.23
77587;BME280;66744;49.716;17.158;2023-05-29T06:48:24;99277.13;;;16.88;59.22
77587;BME280;66744;49.716;17.158;2023-05-29T06:51:28;99273.06;;;16.98;59.24
77587;BME280;66744;49.716;17.158;2023-05-29T06:54:30;99266.19;;;17.08;59.00
77587;BME280;66744;49.716;17.158;2023-05-29T06:57:31;99270.22;;;17.31;58.16
77587;BME280;66744;49.716;17.158;2023-05-29T07:00:32;99272.97;;;17.54;54.98
77587;BME280;66744;49.716;17.158;2023-05-29T07:04:03;99262.84;;;17.66;54.48
77587;BME280;66744;49.716;17.158;2023-05-29T07:07:06;99273.69;;;17.79;54.47
77587;BME280;66744;49.716;17.158;2023-05-29T07:10:07;99273.28;;;18.00;53.77
77587;BME280;66744;49.716;17.158;2023-05-29T07:13:09;99276.91;;;18.21;51.35
77587;BME280;66744;49.716;17.158;2023-05-29T07:16:11;99267.22;;;18.31;51.81
77587;BME280;66744;49.716;17.158;2023-05-29T07:19:12;99272.63;;;18.49;52.79
77587;BME280;66744;49.716;17.158;2023-05-29T07:22:16;99265.47;;;18.63;48.94
77587;BME280;66744;49.716;17.158;2023-05-29T07:25:17;99268.78;;;18.81;47.99
77587;BME280;66744;49.716;17.158;2023-05-29T07:28:22;99267.06;;;19.04;48.01
77587;BME280;66744;49.716;17.158;2023-05-29T07:31:24;99267.28;;;19.21;44.37
77587;BME280;66744;49.716;17.158;2023-05-29T07:34:26;99273.81;;;19.38;46.61
77587;BME280;66744;49.716;17.158;2023-05-29T07:37:28;99278.81;;;19.54;45.50
77587;BME280;66744;49.716;17.158;2023-05-29T07:40:34;99277.53;;;19.75;42.23
77587;BME280;66744;49.716;17.158;2023-05-29T07:43:58;99278.47;;;19.92;39.52
77587;BME280;66744;49.716;17.158;2023-05-29T07:47:00;99274.00;;;20.01;40.38
77587;BME280;66744;49.716;17.158;2023-05-29T07:50:10;99290.25;;;20.28;41.16
77587;BME280;66744;49.716;17.158;2023-05-29T07:53:11;99283.78;;;20.47;37.67
77587;BME280;66744;49.716;17.158;2023-05-29T07:56:14;99292.56;;;20.66;38.50
77587;BME280;66744;49.716;17.158;2023-05-29T07:59:15;99292.28;;;20.64;34.81
77587;BME280;66744;49.716;17.158;2023-05-29T08:02:18;99297.44;;;20.77;36.74
77587;BME280;66744;49.716;17.158;2023-05-29T08:05:33;99289.41;;;20.90;34.74
77587;BME280;66744;49.716;17.158;2023-05-29T08:08:38;99295.81;;;21.01;35.84
77587;BME280;66744;49.716;17.158;2023-05-29T08:11:46;99286.75;;;21.12;35.09
77587;BME280;66744;49.716;17.158;2023-05-29T08:14:48;99294.94;;;21.21;35.46
77587;BME280;66744;49.716;17.158;2023-05-29T08:17:49;99295.50;;;21.36;34.13
77587;BME280;66744;49.716;17.158;2023-05-29T08:20:51;99292.75;;;21.47;35.30
77587;BME280;66744;49.716;17.158;2023-05-29T08:23:53;99286.44;;;21.58;35.70
77587;BME280;66744;49.716;17.158;2023-05-29T08:26:54;99279.31;;;21.63;34.71
77587;BME280;66744;49.716;17.158;2023-05-29T08:29:55;99287.00;;;21.73;34.04
77587;BME280;66744;49.716;17.158;2023-05-29T08:32:57;99291.31;;;21.80;34.07
77587;BME280;66744;49.716;17.158;2023-05-29T08:36:00;99293.16;;;21.88;33.47
77587;BME280;66744;49.716;17.158;2023-05-29T08:39:01;99295.97;;;21.99;32.99
77587;BME280;66744;49.716;17.158;2023-05-29T08:45:09;99291.41;;;22.13;32.44
77587;BME280;66744;49.716;17.158;2023-05-29T08:48:14;99292.16;;;22.13;30.20
77587;BME280;66744;49.716;17.158;2023-05-29T08:51:19;99293.94;;;22.17;32.09
77587;BME280;66744;49.716;17.158;2023-05-29T08:54:22;99289.88;;;22.23;31.23
77587;BME280;66744;49.716;17.158;2023-05-29T08:57:24;99282.78;;;22.39;31.20
77587;BME280;66744;49.716;17.158;2023-05-29T09:00:26;99288.59;;;22.46;32.59
77587;BME280;66744;49.716;17.158;2023-05-29T09:03:30;99285.03;;;22.57;31.12
77587;BME280;66744;49.716;17.158;2023-05-29T09:06:32;99288.34;;;22.61;32.19
77587;BME280;66744;49.716;17.158;2023-05-29T09:09:33;99286.84;;;22.65;31.17
77587;BME280;66744;49.716;17.158;2023-05-29T09:12:35;99293.22;;;22.72;29.70
77587;BME280;66744;49.716;17.158;2023-05-29T09:15:39;99291.16;;;22.66;29.93
77587;BME280;66744;49.716;17.158;2023-05-29T09:18:41;99289.88;;;22.79;33.13
77587;BME280;66744;49.716;17.158;2023-05-29T09:21:46;99278.41;;;22.88;32.51
77587;BME280;66744;49.716;17.158;2023-05-29T09:24:48;99281.94;;;22.99;32.56
77587;BME280;66744;49.716;17.158;2023-05-29T09:27:58;99286.47;;;23.08;31.66
77587;BME280;66744;49.716;17.158;2023-05-29T09:31:00;99281.66;;;23.08;31.33
77587;BME280;66744;49.716;17.158;2023-05-29T09:34:02;99289.28;;;23.19;29.95
77587;BME280;66744;49.716;17.158;2023-05-29T09:37:13;99283.91;;;23.21;29.49
77587;BME280;66744;49.716;17.158;2023-05-29T09:40:15;99284.91;;;23.23;31.09
77587;BME280;66744;49.716;17.158;2023-05-29T09:43:18;99288.66;;;23.37;29.49
77587;BME280;66744;49.716;17.158;2023-05-29T09:46:23;99289.72;;;23.40;29.24
77587;BME280;66744;49.716;17.158;2023-05-29T09:49:25;99291.75;;;23.45;28.22
77587;BME280;66744;49.716;17.158;2023-05-29T09:52:41;99281.56;;;23.42;28.81
77587;BME280;66744;49.716;17.158;2023-05-29T09:55:42;99280.22;;;23.54;31.88
77587;BME280;66744;49.716;17.158;2023-05-29T09:58:44;99281.19;;;23.62;31.26
77587;BME280;66744;49.716;17.158;2023-05-29T10:01:48;99273.56;;;23.57;30.80
77587;BME280;66744;49.716;17.158;2023-05-29T10:04:50;99265.19;;;23.51;33.08
77587;BME280;66744;49.716;17.158;2023-05-29T10:07:53;99266.19;;;23.54;34.50
77587;BME280;66744;49.716;17.158;2023-05-29T10:11:02;99272.75;;;23.67;32.95
77587;BME280;66744;49.716;17.158;2023-05-29T10:14:08;99277.00;;;23.79;31.80
77587;BME280;66744;49.716;17.158;2023-05-29T10:17:13;99277.91;;;23.99;32.22
77587;BME280;66744;49.716;17.158;2023-05-29T10:20:16;99272.88;;;23.86;31.77
77587;BME280;66744;49.716;17.158;2023-05-29T10:23:21;99280.28;;;23.89;31.70
77587;BME280;66744;49.716;17.158;2023-05-29T10:26:27;99282.22;;;24.00;33.10
77587;BME280;66744;49.716;17.158;2023-05-29T10:29:43;99268.16;;;24.11;33.45
77587;BME280;66744;49.716;17.158;2023-05-29T10:36:21;99263.78;;;24.15;30.97
77587;BME280;66744;49.716;17.158;2023-05-29T10:39:29;99277.81;;;24.15;27.59
77587;BME280;66744;49.716;17.158;2023-05-29T10:42:46;99278.94;;;24.37;28.85
77587;BME280;66744;49.716;17.158;2023-05-29T10:45:53;99271.78;;;24.36;27.90
77587;BME280;66744;49.716;17.158;2023-05-29T10:48:54;99286.88;;;24.32;26.53
77587;BME280;66744;49.716;17.158;2023-05-29T10:51:57;99276.88;;;24.37;27.25
77587;BME280;66744;49.716;17.158;2023-05-29T10:54:59;99272.59;;;24.30;25.83
77587;BME280;66744;49.716;17.158;2023-05-29T10:58:09;99267.34;;;24.16;26.44
77587;BME280;66744;49.716;17.158;2023-05-29T11:01:14;99268.25;;;24.29;27.34
77587;BME280;66744;49.716;17.158;2023-05-29T11:08:00;99274.16;;;24.80;27.67
77587;BME280;66744;49.716;17.158;2023-05-29T11:11:33;99274.44;;;24.82;27.35
77587;BME280;66744;49.716;17.158;2023-05-29T11:15:25;99268.06;;;24.81;28.25
77587;BME280;66744;49.716;17.158;2023-05-29T11:18:38;99257.94;;;24.97;26.41
77587;BME280;66744;49.716;17.158;2023-05-29T11:25:09;99252.06;;;24.95;26.20
77587;BME280;66744;49.716;17.158;2023-05-29T11:28:10;99265.75;;;25.04;27.37
77587;BME280;66744;49.716;17.158;2023-05-29T11:31:12;99267.06;;;25.03;27.10
77587;BME280;66744;49.716;17.158;2023-05-29T11:34:14;99271.97;;;25.40;25.92
77587;BME280;66744;49.716;17.158;2023-05-29T11:37:24;99265.56;;;26.14;24.94
77587;BME280;66744;49.716;17.158;2023-05-29T11:40:43;99268.91;;;27.02;23.97
77587;BME280;66744;49.716;17.158;2023-05-29T11:43:57;99273.91;;;28.37;21.48
77587;BME280;66744;49.716;17.158;2023-05-29T11:47:03;99265.31;;;29.20;20.73
77587;BME280;66744;49.716;17.158;2023-05-29T11:50:30;99264.59;;;29.70;19.51
77587;BME280;66744;49.716;17.158;2023-05-29T11:58:31;99250.94;;;28.82;20.61
77587;BME280;66744;49.716;17.158;2023-05-29T12:01:34;99242.34;;;28.05;22.38
77587;BME280;66744;49.716;17.158;2023-05-29T12:04:39;99242.41;;;27.45;23.15
77587;BME280;66744;49.716;17.158;2023-05-29T12:08:15;99243.84;;;27.12;22.42
77587;BME280;66744;49.716;17.158;2023-05-29T12:14:38;99236.03;;;26.66;22.99
77587;BME280;66744;49.716;17.158;2023-05-29T12:17:44;99236.09;;;26.34;22.93
77587;BME280;66744;49.716;17.158;2023-05-29T12:20:48;99236.72;;;26.27;24.04
77587;BME280;66744;49.716;17.158;2023-05-29T12:23:55;99236.56;;;26.19;23.21
77587;BME280;66744;49.716;17.158;2023-05-29T12:26:57;99241.06;;;26.28;24.40
77587;BME280;66744;49.716;17.158;2023-05-29T12:30:01;99234.00;;;26.34;23.55
77587;BME280;66744;49.716;17.158;2023-05-29T12:33:03;99236.75;;;26.53;24.51
77587;BME280;66744;49.716;17.158;2023-05-29T12:36:16;99228.25;;;26.27;24.46
77587;BME280;66744;49.716;17.158;2023-05-29T12:39:17;99236.72;;;26.27;24.22
77587;BME280;66744;49.716;17.158;2023-05-29T12:42:19;99232.03;;;25.98;23.51
77587;BME280;66744;49.716;17.158;2023-05-29T12:45:21;99222.22;;;26.04;24.56
77587;BME280;66744;49.716;17.158;2023-05-29T12:48:27;99224.09;;;26.15;23.64
77587;BME280;66744;49.716;17.158;2023-05-29T12:51:28;99218.22;;;26.44;23.61
77587;BME280;66744;49.716;17.158;2023-05-29T12:54:29;99217.59;;;26.52;25.63
77587;BME280;66744;49.716;17.158;2023-05-29T12:57:31;99223.94;;;26.52;25.17
77587;BME280;66744;49.716;17.158;2023-05-29T13:00:34;99212.56;;;26.44;24.14
77587;BME280;66744;49.716;17.158;2023-05-29T13:03:37;99215.84;;;26.48;23.41
77587;BME280;66744;49.716;17.158;2023-05-29T13:11:01;99206.69;;;26.29;24.40
77587;BME280;66744;49.716;17.158;2023-05-29T13:14:03;99206.81;;;26.37;24.20
77587;BME280;66744;49.716;17.158;2023-05-29T13:17:10;99205.31;;;26.36;23.85
77587;BME280;66744;49.716;17.158;2023-05-29T13:25:07;99188.75;;;26.45;24.17
77587;BME280;66744;49.716;17.158;2023-05-29T13:33:05;99183.75;;;26.38;24.06
77587;BME280;66744;49.716;17.158;2023-05-29T13:36:08;99173.44;;;26.41;24.58
77587;BME280;66744;49.716;17.158;2023-05-29T13:39:13;99177.03;;;26.55;24.45
77587;BME280;66744;49.716;17.158;2023-05-29T13:46:52;99171.84;;;26.72;25.34
77587;BME280;66744;49.716;17.158;2023-05-29T13:49:53;99167.69;;;26.73;23.88
77587;BME280;66744;49.716;17.158;2023-05-29T14:02:43;99157.41;;;26.88;24.13
77587;BME280;66744;49.716;17.158;2023-05-29T14:05:45;99150.91;;;26.93;24.61
77587;BME280;66744;49.716;17.158;2023-05-29T14:08:46;99158.47;;;27.12;23.95
77587;BME280;66744;49.716;17.158;2023-05-29T14:11:48;99149.78;;;27.10;24.13
77587;BME280;66744;49.716;17.158;2023-05-29T14:14:49;99136.28;;;26.82;23.47
77587;BME280;66744;49.716;17.158;2023-05-29T14:26:46;99146.22;;;27.09;24.11
77587;BME280;66744;49.716;17.158;2023-05-29T14:29:48;99142.16;;;27.18;24.09
77587;BME280;66744;49.716;17.158;2023-05-29T14:32:50;99145.22;;;27.20;23.80
77587;BME280;66744;49.716;17.158;2023-05-29T14:35:56;99136.31;;;27.29;23.54
77587;BME280;66744;49.716;17.158;2023-05-29T14:39:03;99140.63;;;27.43;23.30
77587;BME280;66744;49.716;17.158;2023-05-29T14:42:05;99129.19;;;27.48;23.74
77587;BME280;66744;49.716;17.158;2023-05-29T14:45:07;99137.69;;;27.69;23.13
77587;BME280;66744;49.716;17.158;2023-05-29T14:48:38;99129.97;;;27.70;24.43
77587;BME280;66744;49.716;17.158;2023-05-29T14:51:39;99131.47;;;27.71;23.30
77587;BME280;66744;49.716;17.158;2023-05-29T14:54:44;99138.28;;;27.54;23.50
77587;BME280;66744;49.716;17.158;2023-05-29T14:57:45;99139.84;;;27.29;23.75
77587;BME280;66744;49.716;17.158;2023-05-29T15:00:46;99135.50;;;27.08;23.69
77587;BME280;66744;49.716;17.158;2023-05-29T15:03:48;99131.00;;;27.12;23.80
77587;BME280;66744;49.716;17.158;2023-05-29T15:06:49;99120.56;;;27.20;24.77
77587;BME280;66744;49.716;17.158;2023-05-29T15:09:55;99136.78;;;27.07;23.37
77587;BME280;66744;49.716;17.158;2023-05-29T15:17:52;99139.03;;;27.21;23.38
77587;BME280;66744;49.716;17.158;2023-05-29T15:20:58;99140.31;;;27.20;23.94
77587;BME280;66744;49.716;17.158;2023-05-29T15:24:02;99132.75;;;27.15;23.32
77587;BME280;66744;49.716;17.158;2023-05-29T15:27:03;99124.84;;;27.14;23.78
77587;BME280;66744;49.716;17.158;2023-05-29T15:30:13;99126.13;;;27.13;22.97
77587;BME280;66744;49.716;17.158;2023-05-29T15:33:22;99129.59;;;27.19;23.11
77587;BME280;66744;49.716;17.158;2023-05-29T15:36:25;99124.28;;;27.15;22.33
77587;BME280;66744;49.716;17.158;2023-05-29T15:39:26;99133.97;;;26.93;22.88
77587;BME280;66744;49.716;17.158;2023-05-29T15:42:27;99124.75;;;27.06;22.68
77587;BME280;66744;49.716;17.158;2023-05-29T15:45:31;99128.06;;;26.84;22.90
77587;BME280;66744;49.716;17.158;2023-05-29T15:48:32;99130.63;;;26.95;23.75
77587;BME280;66744;49.716;17.158;2023-05-29T15:51:35;99133.13;;;26.98;22.97
77587;BME280;66744;49.716;17.158;2023-05-29T15:54:41;99127.81;;;26.69;22.71
77587;BME280;66744;49.716;17.158;2023-05-29T15:57:43;99128.25;;;26.60;22.68
77587;BME280;66744;49.716;17.158;2023-05-29T16:00:44;99125.53;;;26.67;23.10
77587;BME280;66744;49.716;17.158;2023-05-29T16:03:46;99126.19;;;26.73;24.10
77587;BME280;66744;49.716;17.158;2023-05-29T16:06:47;99134.53;;;26.66;23.33
77587;BME280;66744;49.716;17.158;2023-05-29T16:09:48;99130.84;;;26.71;23.44
77587;BME280;66744;49.716;17.158;2023-05-29T16:12:50;99136.41;;;26.63;23.86
77587;BME280;66744;49.716;17.158;2023-05-29T16:15:53;99135.53;;;26.42;23.27
77587;BME280;66744;49.716;17.158;2023-05-29T16:18:54;99132.69;;;26.29;23.00
77587;BME280;66744;49.716;17.158;2023-05-29T16:21:56;99136.81;;;26.41;23.36
77587;BME280;66744;49.716;17.158;2023-05-29T16:24:57;99136.47;;;26.31;22.68
77587;BME280;66744;49.716;17.158;2023-05-29T16:27:58;99142.34;;;26.46;23.36
77587;BME280;66744;49.716;17.158;2023-05-29T16:31:00;99146.69;;;26.47;24.12
77587;BME280;66744;49.716;17.158;2023-05-29T16:34:03;99141.69;;;26.54;23.43
77587;BME280;66744;49.716;17.158;2023-05-29T16:37:06;99145.81;;;26.66;23.41
77587;BME280;66744;49.716;17.158;2023-05-29T16:40:12;99143.97;;;26.68;23.23
77587;BME280;66744;49.716;17.158;2023-05-29T16:43:24;99132.91;;;26.70;23.59
77587;BME280;66744;49.716;17.158;2023-05-29T16:46:26;99141.78;;;27.00;23.62
77587;BME280;66744;49.716;17.158;2023-05-29T16:49:28;99134.53;;;26.66;23.64
77587;BME280;66744;49.716;17.158;2023-05-29T16:52:29;99136.16;;;26.61;23.54
77587;BME280;66744;49.716;17.158;2023-05-29T16:55:30;99147.53;;;26.56;23.50
77587;BME280;66744;49.716;17.158;2023-05-29T16:58:31;99139.66;;;26.54;24.28
77587;BME280;66744;49.716;17.158;2023-05-29T17:01:33;99148.56;;;26.84;23.30
77587;BME280;66744;49.716;17.158;2023-05-29T17:04:34;99138.47;;;27.56;23.77
77587;BME280;66744;49.716;17.158;2023-05-29T17:07:37;99140.69;;;27.92;22.01
77587;BME280;66744;49.716;17.158;2023-05-29T17:10:38;99161.22;;;28.34;21.36
77587;BME280;66744;49.716;17.158;2023-05-29T17:13:40;99160.47;;;28.61;21.57
77587;BME280;66744;49.716;17.158;2023-05-29T17:16:41;99154.09;;;28.40;21.60